createdAt,value
2022-08-28T18:46:02.793Z,977.75
2022-08-28T18:51:34.451Z,978.42
2022-08-28T18:57:07.456Z,979.0
2022-08-28T19:02:42.424Z,979.16
2022-08-28T19:08:09.528Z,979.27
2022-08-28T19:13:41.186Z,979.29
2022-08-28T19:19:13.370Z,979.19
2022-08-28T19:24:44.756Z,979.1
2022-08-28T19:30:16.559Z,979.11
2022-08-28T19:35:48.196Z,979.03
2022-08-28T19:41:19.853Z,978.97
2022-08-28T19:46:55.954Z,979.0
2022-08-28T19:52:27.644Z,978.81
2022-08-28T19:57:59.406Z,978.84
2022-08-28T20:03:31.198Z,978.73
2022-08-28T20:09:02.861Z,978.77
2022-08-28T20:14:34.479Z,978.73
2022-08-28T20:20:07.653Z,978.67
2022-08-28T20:25:38.001Z,978.68
2022-08-28T20:31:09.883Z,978.48
2022-08-28T20:36:41.464Z,978.79
2022-08-28T20:42:13.214Z,978.72
2022-08-28T20:47:49.270Z,978.7
2022-08-28T20:53:38.385Z,978.57
2022-08-28T20:58:52.765Z,978.47
2022-08-28T21:04:24.461Z,978.22
2022-08-28T21:10:08.387Z,978.24
2022-08-28T21:15:27.882Z,978.23
2022-08-28T21:20:59.663Z,978.15
2022-08-28T21:26:31.750Z,978.32
2022-08-28T21:32:03.053Z,978.25
2022-08-28T21:37:34.813Z,978.23
2022-08-28T21:43:06.554Z,978.48
2022-08-28T21:48:44.601Z,978.49
2022-08-28T21:54:16.348Z,978.39
2022-08-28T21:59:48.097Z,978.41
2022-08-28T22:05:19.832Z,978.44
2022-08-28T22:10:51.466Z,978.46
2022-08-28T22:16:23.449Z,978.42
2022-08-28T22:21:54.910Z,978.35
2022-08-28T22:27:27.166Z,978.29
2022-08-28T22:32:58.386Z,978.37
2022-08-28T22:38:30.068Z,978.43
2022-08-28T22:44:01.821Z,978.55
2022-08-28T22:49:40.494Z,978.45
2022-08-28T22:55:13.071Z,978.2
2022-08-28T23:00:43.384Z,978.3
2022-08-28T23:06:15.122Z,978.29
2022-08-28T23:11:46.882Z,978.22
2022-08-28T23:17:19.317Z,978.12
2022-08-28T23:22:50.237Z,978.08
2022-08-28T23:28:21.994Z,978.02
2022-08-28T23:33:53.718Z,977.99
2022-08-28T23:39:28.522Z,977.98
2022-08-28T23:44:57.153Z,977.96
2022-08-28T23:50:33.315Z,977.84
2022-08-28T23:56:05.032Z,977.68
